createdAt,value
2023-05-14T00:01:08.552Z,14.88
2023-05-14T00:03:37.626Z,15.02
2023-05-14T00:06:06.249Z,16.15
2023-05-14T00:08:34.670Z,16.67
2023-05-14T00:11:03.148Z,16.30
2023-05-14T00:13:31.329Z,17.02
2023-05-14T00:15:59.629Z,16.15
2023-05-14T00:18:29.257Z,16.02
2023-05-14T00:20:57.580Z,15.70
2023-05-14T00:23:25.997Z,15.38
2023-05-14T00:25:54.383Z,15.20
2023-05-14T00:28:22.519Z,15.90
2023-05-14T00:30:50.841Z,16.30
2023-05-14T00:33:19.082Z,15.87
2023-05-14T00:35:48.736Z,17.42
2023-05-14T00:38:19.522Z,16.17
2023-05-14T00:40:51.993Z,18.70
2023-05-14T00:43:20.956Z,16.75
2023-05-14T00:45:51.132Z,17.08
2023-05-14T00:48:20.323Z,17.67
2023-05-14T00:50:51.033Z,16.88
2023-05-14T00:53:19.786Z,17.25
2023-05-14T00:55:49.916Z,17.23
2023-05-14T00:58:19.682Z,17.70
2023-05-14T01:00:48.222Z,16.90
2023-05-14T01:03:16.680Z,17.52
2023-05-14T01:05:58.366Z,18.50
2023-05-14T01:08:33.868Z,18.55
2023-05-14T01:11:08.226Z,18.55
2023-05-14T01:13:51.483Z,18.55
2023-05-14T01:16:21.015Z,19.02
2023-05-14T01:18:52.332Z,19.27
2023-05-14T01:21:35.336Z,18.40
2023-05-14T01:24:03.473Z,18.25
2023-05-14T01:26:32.500Z,18.60
2023-05-14T01:29:05.269Z,18.10
2023-05-14T01:31:36.124Z,19.35
2023-05-14T01:34:07.105Z,20.25
2023-05-14T01:36:37.292Z,18.98
2023-05-14T01:39:05.800Z,18.23
2023-05-14T01:41:34.687Z,20.60
2023-05-14T01:44:04.958Z,19.67
2023-05-14T01:46:33.458Z,18.33
2023-05-14T01:49:02.103Z,18.60
2023-05-14T01:51:30.384Z,19.90
2023-05-14T01:54:00.292Z,18.55
2023-05-14T01:56:28.497Z,20.13
2023-05-14T01:58:57.129Z,20.58
2023-05-14T02:01:26.343Z,20.30
2023-05-14T02:03:55.207Z,18.43
2023-05-14T02:06:23.502Z,18.92
2023-05-14T02:08:53.020Z,19.45
2023-05-14T02:11:22.625Z,19.38
2023-05-14T02:13:52.588Z,19.73
2023-05-14T02:16:21.160Z,18.58
2023-05-14T02:18:49.436Z,18.80
2023-05-14T02:25:26.100Z,19.60
2023-05-14T02:27:55.621Z,20.20
2023-05-14T02:30:24.157Z,19.17
2023-05-14T02:32:52.569Z,19.40
2023-05-14T02:35:22.907Z,19.13
2023-05-14T02:37:51.186Z,18.50
2023-05-14T02:40:19.320Z,18.50
2023-05-14T02:43:38.495Z,18.55
2023-05-14T02:46:08.159Z,17.40
2023-05-14T02:49:26.235Z,19.10
2023-05-14T02:51:55.029Z,16.17
2023-05-14T02:54:23.405Z,16.95
2023-05-14T02:56:51.638Z,18.00
2023-05-14T02:59:19.858Z,19.13
2023-05-14T03:01:49.769Z,17.33
2023-05-14T03:04:18.545Z,18.88
2023-05-14T03:06:46.633Z,18.55
2023-05-14T03:09:40.380Z,17.95
2023-05-14T03:12:09.277Z,17.77
2023-05-14T03:14:37.308Z,18.80
2023-05-14T03:17:07.348Z,16.27
2023-05-14T03:19:35.568Z,18.40
2023-05-14T03:22:04.045Z,17.27
2023-05-14T03:24:32.142Z,18.48
2023-05-14T03:27:00.185Z,17.63
2023-05-14T03:29:28.234Z,18.92
2023-05-14T03:31:56.422Z,18.38
2023-05-14T03:34:26.222Z,18.30
2023-05-14T03:36:54.408Z,17.77
2023-05-14T03:39:22.580Z,17.35
2023-05-14T03:41:50.832Z,18.15
2023-05-14T03:44:19.414Z,17.48
2023-05-14T03:46:47.590Z,17.23
2023-05-14T03:49:15.898Z,18.08
2023-05-14T03:51:45.482Z,17.23
2023-05-14T03:54:13.867Z,18.33
2023-05-14T03:56:42.026Z,16.33
2023-05-14T03:59:10.342Z,16.55
2023-05-14T04:01:38.567Z,16.98
2023-05-14T04:04:07.130Z,16.83
2023-05-14T04:06:36.361Z,16.67
2023-05-14T04:09:06.158Z,17.65
2023-05-14T04:11:34.332Z,16.53
2023-05-14T04:14:02.724Z,17.03
2023-05-14T04:16:31.462Z,16.80
2023-05-14T04:19:24.323Z,15.52
2023-05-14T04:21:52.523Z,16.87
2023-05-14T04:24:22.134Z,16.67
2023-05-14T04:26:50.202Z,15.77
2023-05-14T04:29:18.436Z,15.73
2023-05-14T04:31:46.828Z,16.80
2023-05-14T04:34:14.968Z,16.30
2023-05-14T04:36:43.210Z,15.97
2023-05-14T04:39:12.516Z,16.50
2023-05-14T04:41:42.802Z,15.63
2023-05-14T04:44:11.171Z,15.18
2023-05-14T04:46:39.447Z,14.13
2023-05-14T04:49:07.952Z,14.27
2023-05-14T04:51:36.190Z,15.13
2023-05-14T04:54:04.385Z,16.07
2023-05-14T04:56:32.568Z,15.60
2023-05-14T04:59:02.151Z,15.13
2023-05-14T05:01:30.624Z,14.90
2023-05-14T05:04:48.600Z,16.30
2023-05-14T05:07:16.687Z,16.13
2023-05-14T05:09:45.116Z,15.60
2023-05-14T05:12:13.530Z,15.73
2023-05-14T05:14:42.937Z,15.60
2023-05-14T05:17:11.042Z,15.00
2023-05-14T05:19:43.870Z,15.87
2023-05-14T05:22:37.656Z,15.53
2023-05-14T05:25:07.293Z,14.93
2023-05-14T05:27:35.644Z,15.77
2023-05-14T05:30:06.476Z,17.03
2023-05-14T05:32:34.857Z,16.38
2023-05-14T05:35:03.446Z,17.05
2023-05-14T05:37:31.816Z,16.20
2023-05-14T05:39:59.938Z,17.13
2023-05-14T05:42:28.176Z,16.63
2023-05-14T05:44:56.641Z,14.83
2023-05-14T05:47:26.356Z,17.77
2023-05-14T05:49:55.182Z,16.67
2023-05-14T05:52:23.411Z,16.50
2023-05-14T05:54:51.562Z,17.20
2023-05-14T05:57:19.755Z,16.77
2023-05-14T05:59:47.977Z,17.63
2023-05-14T06:02:16.198Z,16.10
2023-05-14T06:04:45.896Z,15.97
2023-05-14T06:07:14.023Z,15.90
2023-05-14T06:09:42.306Z,15.83
2023-05-14T06:12:11.206Z,16.23
2023-05-14T06:14:39.271Z,16.20
2023-05-14T06:17:07.750Z,16.33
2023-05-14T06:19:36.422Z,16.90
2023-05-14T06:22:06.455Z,16.23
2023-05-14T06:24:35.047Z,16.85
2023-05-14T06:27:03.516Z,17.03
2023-05-14T06:29:37.820Z,17.27
2023-05-14T06:32:06.693Z,17.13
2023-05-14T06:34:37.559Z,17.30
2023-05-14T06:37:11.719Z,16.73
2023-05-14T06:39:40.374Z,15.63
2023-05-14T06:42:08.712Z,17.00
2023-05-14T06:44:37.397Z,16.98
2023-05-14T06:47:08.544Z,17.08
2023-05-14T06:49:37.138Z,15.05
2023-05-14T06:52:06.606Z,16.20
2023-05-14T06:54:36.240Z,17.42
2023-05-14T06:57:04.946Z,15.98
2023-05-14T06:59:33.368Z,16.40
2023-05-14T07:02:01.439Z,16.93
2023-05-14T07:04:29.667Z,17.67
2023-05-14T07:06:57.826Z,16.52
2023-05-14T07:09:26.098Z,16.00
2023-05-14T07:11:55.627Z,15.53
2023-05-14T07:14:23.800Z,16.77
2023-05-14T07:16:51.945Z,15.30
2023-05-14T07:19:20.162Z,15.65
2023-05-14T07:21:48.510Z,16.40
2023-05-14T07:24:17.065Z,16.92
2023-05-14T07:27:12.572Z,17.55
2023-05-14T07:29:40.698Z,16.55
2023-05-14T07:32:08.813Z,15.38
2023-05-14T07:34:37.190Z,17.52
2023-05-14T07:37:05.903Z,16.67
2023-05-14T07:39:34.096Z,16.48
2023-05-14T07:42:02.782Z,17.23
2023-05-14T07:44:32.440Z,16.45
2023-05-14T07:47:00.873Z,17.40
2023-05-14T07:49:29.029Z,19.02
2023-05-14T07:51:57.269Z,17.63
2023-05-14T07:54:25.554Z,16.90
2023-05-14T07:56:54.050Z,18.52
2023-05-14T07:59:22.198Z,17.45
2023-05-14T08:01:51.706Z,17.67
2023-05-14T08:04:20.057Z,19.42
2023-05-14T08:06:48.241Z,18.33
2023-05-14T08:09:16.585Z,18.55
2023-05-14T08:11:44.897Z,17.20
2023-05-14T08:14:13.065Z,17.85
2023-05-14T08:16:41.119Z,18.83
2023-05-14T08:19:10.623Z,17.95
2023-05-14T08:21:39.029Z,17.00
2023-05-14T08:24:07.750Z,18.85
2023-05-14T08:26:36.018Z,17.27
2023-05-14T08:29:04.179Z,17.50
2023-05-14T08:31:32.398Z,17.38
2023-05-14T08:34:00.664Z,17.67
2023-05-14T08:36:30.148Z,16.15
2023-05-14T08:38:58.291Z,17.90
2023-05-14T08:41:26.679Z,16.52
2023-05-14T08:44:02.255Z,16.75
2023-05-14T08:46:32.020Z,17.63
2023-05-14T08:49:10.699Z,17.05
2023-05-14T08:51:41.014Z,17.48
2023-05-14T08:54:09.268Z,16.27
2023-05-14T08:56:39.575Z,15.45
2023-05-14T08:59:07.885Z,15.23
2023-05-14T09:01:36.527Z,16.98
2023-05-14T09:04:08.562Z,15.25
2023-05-14T09:06:37.950Z,15.90
2023-05-14T09:09:07.799Z,15.98
2023-05-14T09:11:35.979Z,16.40
2023-05-14T09:14:04.367Z,15.10
2023-05-14T09:16:58.111Z,16.85
2023-05-14T09:19:27.229Z,16.40
2023-05-14T09:24:21.334Z,15.27
2023-05-14T09:26:52.749Z,15.32
2023-05-14T09:29:21.031Z,16.58
2023-05-14T09:31:51.663Z,16.25
2023-05-14T09:34:27.207Z,15.80
2023-05-14T09:36:59.090Z,16.33
2023-05-14T09:39:29.292Z,15.60
2023-05-14T09:41:58.162Z,17.08
2023-05-14T09:44:26.885Z,16.50
2023-05-14T09:46:55.647Z,16.23
2023-05-14T09:49:23.879Z,15.90
2023-05-14T09:51:52.393Z,15.65
2023-05-14T09:54:20.502Z,17.30
2023-05-14T09:56:50.170Z,16.55
2023-05-14T09:59:18.278Z,17.92
2023-05-14T10:01:47.000Z,17.55
2023-05-14T10:04:16.154Z,17.27
2023-05-14T10:06:48.417Z,17.83
2023-05-14T10:09:22.214Z,16.13
2023-05-14T10:11:55.953Z,18.27
2023-05-14T10:14:28.072Z,16.55
2023-05-14T10:17:00.212Z,17.05
2023-05-14T10:19:31.035Z,16.65
2023-05-14T10:24:34.494Z,16.67
2023-05-14T10:27:04.525Z,16.42
2023-05-14T10:29:35.017Z,17.23
2023-05-14T10:32:06.152Z,17.67
2023-05-14T10:34:38.669Z,17.45
2023-05-14T10:37:32.494Z,18.52
2023-05-14T10:40:03.835Z,16.58
2023-05-14T10:42:37.589Z,16.98
2023-05-14T10:45:08.713Z,17.27
2023-05-14T10:47:38.816Z,17.55
2023-05-14T10:50:09.648Z,17.25
2023-05-14T10:52:38.242Z,16.10
2023-05-14T10:55:08.222Z,16.35
2023-05-14T10:57:39.417Z,16.55
2023-05-14T11:00:10.862Z,16.85
2023-05-14T11:02:40.998Z,16.63
2023-05-14T11:05:11.647Z,15.60
2023-05-14T11:07:41.219Z,16.85
2023-05-14T11:10:11.652Z,16.77
2023-05-14T11:12:43.310Z,16.65
2023-05-14T11:15:13.228Z,15.77
2023-05-14T11:17:43.777Z,16.00
2023-05-14T11:20:14.168Z,16.10
2023-05-14T11:22:43.774Z,15.50
2023-05-14T11:25:14.856Z,16.47
2023-05-14T11:27:46.706Z,15.88
2023-05-14T11:30:17.223Z,16.25
2023-05-14T11:32:47.139Z,14.73
2023-05-14T11:35:17.165Z,15.82
2023-05-14T11:37:52.221Z,16.27
2023-05-14T11:40:20.830Z,16.10
2023-05-14T11:42:52.328Z,15.60
2023-05-14T11:45:26.840Z,15.55
2023-05-14T11:47:55.224Z,15.30
2023-05-14T11:50:23.952Z,14.85
2023-05-14T11:52:52.647Z,15.43
2023-05-14T11:55:21.069Z,15.65
2023-05-14T11:57:51.315Z,17.67
2023-05-14T12:00:23.301Z,15.02
2023-05-14T12:02:51.972Z,15.05
2023-05-14T12:05:20.608Z,14.05
2023-05-14T12:07:49.072Z,15.30
2023-05-14T12:10:17.365Z,14.90
2023-05-14T12:12:48.237Z,13.77
2023-05-14T12:15:18.261Z,13.52
2023-05-14T12:17:51.958Z,14.80
2023-05-14T12:20:20.436Z,14.65
2023-05-14T12:22:48.879Z,14.88
2023-05-14T12:25:17.274Z,13.90
2023-05-14T12:27:46.444Z,15.65
2023-05-14T12:32:49.194Z,14.10
2023-05-14T12:35:17.765Z,14.48
2023-05-14T12:37:46.142Z,15.27
2023-05-14T12:40:14.605Z,16.83
2023-05-14T12:42:42.727Z,15.15
2023-05-14T12:45:12.358Z,14.02
2023-05-14T12:47:45.606Z,12.70
2023-05-14T12:50:15.394Z,13.10
2023-05-14T12:52:43.544Z,15.48
2023-05-14T12:55:11.880Z,13.35
2023-05-14T12:57:40.467Z,12.40
2023-05-14T13:00:13.985Z,13.75
2023-05-14T13:02:43.885Z,13.40
2023-05-14T13:05:12.851Z,15.15
2023-05-14T13:07:42.876Z,12.18
2023-05-14T13:10:12.093Z,13.55
2023-05-14T13:12:40.560Z,14.45
2023-05-14T13:15:10.190Z,14.05
2023-05-14T13:17:38.588Z,12.23
2023-05-14T13:20:08.407Z,12.98
2023-05-14T13:22:36.693Z,13.95
2023-05-14T13:25:07.599Z,14.27
2023-05-14T13:27:37.052Z,14.57
2023-05-14T13:30:06.075Z,13.90
2023-05-14T13:32:34.842Z,14.60
2023-05-14T13:35:03.498Z,12.45
2023-05-14T13:37:31.993Z,13.75
2023-05-14T13:40:00.438Z,13.38
2023-05-14T13:42:30.195Z,13.70
2023-05-14T13:45:00.376Z,18.27
2023-05-14T13:47:28.911Z,13.73
2023-05-14T13:49:57.578Z,11.80
2023-05-14T13:52:26.632Z,12.57
2023-05-14T13:55:47.846Z,13.40
2023-05-14T13:58:18.826Z,19.45
2023-05-14T14:00:46.986Z,13.60
2023-05-14T14:03:15.172Z,11.60
2023-05-14T14:05:43.452Z,12.40
2023-05-14T14:08:22.730Z,11.75
2023-05-14T14:10:52.286Z,9.40
2023-05-14T14:13:25.450Z,9.05
2023-05-14T14:15:53.944Z,7.30
2023-05-14T14:18:22.587Z,8.02
2023-05-14T14:20:53.350Z,8.10
2023-05-14T14:25:50.417Z,10.63
2023-05-14T14:28:19.637Z,10.10
2023-05-14T14:30:51.768Z,9.25
2023-05-14T14:33:20.983Z,9.98
2023-05-14T14:35:49.463Z,10.18
2023-05-14T14:38:17.844Z,10.40
2023-05-14T14:40:47.047Z,9.68
2023-05-14T14:43:15.754Z,9.45
2023-05-14T14:45:48.174Z,8.68
2023-05-14T14:48:31.017Z,7.90
2023-05-14T14:51:00.205Z,8.68
2023-05-14T14:53:28.781Z,8.10
2023-05-14T14:55:57.267Z,8.60
2023-05-14T14:58:26.352Z,10.60
2023-05-14T15:00:56.415Z,8.80
2023-05-14T15:03:26.742Z,8.35
2023-05-14T15:08:27.657Z,8.23
2023-05-14T15:10:56.280Z,7.72
2023-05-14T15:13:25.857Z,9.27
2023-05-14T15:15:54.027Z,8.90
2023-05-14T15:18:22.331Z,9.40
2023-05-14T15:20:52.861Z,9.25
2023-05-14T15:23:22.122Z,9.98
2023-05-14T15:25:50.774Z,12.68
2023-05-14T15:28:19.313Z,10.98
2023-05-14T15:30:49.264Z,9.95
2023-05-14T15:33:19.573Z,10.15
2023-05-14T15:35:48.346Z,10.05
2023-05-14T15:38:18.256Z,11.68
2023-05-14T15:40:46.826Z,10.98
2023-05-14T15:43:15.288Z,11.35
2023-05-14T15:45:45.617Z,10.65
2023-05-14T15:48:14.101Z,11.00
2023-05-14T15:50:43.534Z,11.00
2023-05-14T15:53:11.874Z,10.73
2023-05-14T15:55:41.999Z,10.60
2023-05-14T15:58:10.894Z,10.07
2023-05-14T16:00:39.922Z,10.68
2023-05-14T16:03:08.636Z,11.45
2023-05-14T16:05:38.097Z,10.60
2023-05-14T16:08:07.190Z,10.57
2023-05-14T16:10:36.395Z,9.60
2023-05-14T16:13:06.823Z,10.40
2023-05-14T16:15:45.817Z,10.10
2023-05-14T16:18:21.944Z,10.23
2023-05-14T16:20:52.488Z,10.10
2023-05-14T16:23:21.477Z,10.57
2023-05-14T16:25:51.410Z,10.63
2023-05-14T16:28:21.193Z,11.95
2023-05-14T16:30:49.607Z,11.68
2023-05-14T16:33:18.376Z,11.13
2023-05-14T16:35:46.774Z,9.65
2023-05-14T16:42:59.094Z,10.57
2023-05-14T16:45:28.701Z,10.00
2023-05-14T16:47:56.916Z,10.18
2023-05-14T16:50:25.013Z,11.75
2023-05-14T16:52:53.360Z,15.18
2023-05-14T16:55:21.758Z,11.20
2023-05-14T16:57:50.119Z,10.18
2023-05-14T17:00:18.735Z,10.80
2023-05-14T17:02:49.845Z,9.20
2023-05-14T17:05:18.605Z,9.43
2023-05-14T17:07:47.132Z,8.05
2023-05-14T17:10:15.847Z,7.68
2023-05-14T17:12:44.410Z,7.18
2023-05-14T17:15:13.392Z,9.18
2023-05-14T17:17:42.013Z,8.43
2023-05-14T17:20:15.932Z,6.45
2023-05-14T17:22:45.283Z,6.38
2023-05-14T17:25:14.686Z,6.60
2023-05-14T17:27:42.934Z,5.85
2023-05-14T17:30:11.879Z,6.30
2023-05-14T17:32:40.235Z,6.63
2023-05-14T17:35:09.762Z,6.93
2023-05-14T17:37:39.468Z,6.97
2023-05-14T17:40:09.065Z,6.93
2023-05-14T17:42:37.548Z,7.95
2023-05-14T17:45:06.960Z,7.50
2023-05-14T17:47:35.576Z,9.23
2023-05-14T17:50:04.211Z,9.60
2023-05-14T17:52:32.806Z,10.88
2023-05-14T17:55:02.869Z,11.50
2023-05-14T17:57:31.522Z,14.07
2023-05-14T17:59:59.825Z,9.80
2023-05-14T18:02:28.931Z,15.85
2023-05-14T18:04:57.554Z,13.77
2023-05-14T18:07:25.985Z,9.95
2023-05-14T18:09:54.187Z,8.45
2023-05-14T18:12:25.012Z,7.82
2023-05-14T18:14:53.241Z,9.50
2023-05-14T18:17:21.771Z,9.80
2023-05-14T18:19:50.006Z,8.90
2023-05-14T18:22:18.256Z,11.13
2023-05-14T18:24:46.557Z,11.70
2023-05-14T18:27:15.204Z,8.00
2023-05-14T18:29:45.016Z,10.77
2023-05-14T18:32:13.596Z,8.63
2023-05-14T18:34:42.175Z,9.25
2023-05-14T18:37:10.705Z,10.27
2023-05-14T18:39:39.152Z,8.38
2023-05-14T18:42:08.258Z,12.38
2023-05-14T18:44:36.943Z,5.43
2023-05-14T18:47:07.046Z,7.07
2023-05-14T18:49:35.733Z,9.45
2023-05-14T18:52:04.099Z,8.27
2023-05-14T18:54:32.442Z,7.80
2023-05-14T18:57:01.437Z,6.60
2023-05-14T18:59:30.463Z,5.80
2023-05-14T19:02:02.385Z,8.10
2023-05-14T19:04:47.787Z,7.22
2023-05-14T19:07:16.508Z,5.90
2023-05-14T19:09:44.826Z,5.10
2023-05-14T19:12:13.243Z,11.60
2023-05-14T19:14:41.460Z,11.20
2023-05-14T19:17:10.135Z,9.52
2023-05-14T19:19:40.455Z,7.97
2023-05-14T19:22:08.907Z,6.60
2023-05-14T19:24:37.844Z,6.95
2023-05-14T19:27:06.721Z,8.48
2023-05-14T19:29:36.852Z,9.43
2023-05-14T19:32:06.124Z,12.20
2023-05-14T19:34:34.612Z,7.82
2023-05-14T19:37:05.138Z,6.57
2023-05-14T19:39:33.613Z,6.78
2023-05-14T19:42:02.100Z,7.47
2023-05-14T19:44:30.959Z,4.82
2023-05-14T19:46:59.404Z,4.30
2023-05-14T19:49:28.134Z,4.40
2023-05-14T19:51:56.525Z,4.70
2023-05-14T19:54:26.465Z,4.30
2023-05-14T19:56:55.155Z,4.20
2023-05-14T19:59:24.969Z,3.67
2023-05-14T20:01:54.910Z,3.58
2023-05-14T20:04:23.440Z,3.40
2023-05-14T20:06:52.736Z,3.15
2023-05-14T20:09:21.405Z,4.13
2023-05-14T20:11:51.433Z,4.05
2023-05-14T20:14:19.560Z,5.47
2023-05-14T20:16:51.453Z,4.55
2023-05-14T20:19:21.405Z,4.72
2023-05-14T20:21:50.043Z,5.28
2023-05-14T20:24:18.362Z,3.70
2023-05-14T20:26:46.709Z,5.38
2023-05-14T20:29:16.412Z,3.13
2023-05-14T20:31:44.785Z,2.67
2023-05-14T20:34:12.979Z,2.58
2023-05-14T20:36:41.883Z,3.10
2023-05-14T20:39:11.279Z,2.63
2023-05-14T20:41:39.537Z,2.63
2023-05-14T20:44:07.930Z,3.50
2023-05-14T20:46:38.171Z,2.72
2023-05-14T20:49:06.522Z,2.85
2023-05-14T20:51:34.975Z,3.03
2023-05-14T20:54:03.552Z,3.22
2023-05-14T20:56:32.051Z,3.15
2023-05-14T20:59:00.329Z,3.13
2023-05-14T21:01:37.685Z,2.30
2023-05-14T21:04:08.359Z,3.15
2023-05-14T21:06:36.740Z,4.10
2023-05-14T21:09:05.375Z,2.15
2023-05-14T21:11:33.852Z,2.05
2023-05-14T21:14:02.058Z,2.05
2023-05-14T21:16:33.395Z,2.13
2023-05-14T21:19:01.568Z,2.60
2023-05-14T21:21:31.355Z,3.20
2023-05-14T21:23:59.390Z,2.85
2023-05-14T21:26:27.632Z,2.65
2023-05-14T21:28:55.777Z,2.88
2023-05-14T21:31:23.952Z,2.70
2023-05-14T21:33:52.324Z,3.60
2023-05-14T21:36:21.220Z,2.63
2023-05-14T21:38:50.765Z,3.05
2023-05-14T21:41:19.089Z,2.38
2023-05-14T21:43:47.464Z,2.75
2023-05-14T21:46:16.394Z,2.30
2023-05-14T21:48:44.851Z,2.72
2023-05-14T21:51:13.459Z,2.20
2023-05-14T21:53:41.538Z,2.88
2023-05-14T21:56:11.247Z,2.85
2023-05-14T21:58:39.468Z,2.75
2023-05-14T22:01:09.051Z,3.05
2023-05-14T22:03:37.410Z,2.15
2023-05-14T22:06:06.594Z,3.22
2023-05-14T22:08:34.733Z,2.30
2023-05-14T22:11:03.068Z,2.45
2023-05-14T22:13:32.828Z,2.70
2023-05-14T22:16:12.001Z,2.58
2023-05-14T22:18:41.941Z,2.40
2023-05-14T22:21:10.538Z,2.20
2023-05-14T22:23:38.848Z,3.13
2023-05-14T22:26:07.231Z,2.58
2023-05-14T22:28:39.818Z,3.00
2023-05-14T22:31:08.163Z,2.70
2023-05-14T22:33:37.231Z,2.30
2023-05-14T22:36:07.038Z,2.30
2023-05-14T22:38:35.913Z,2.72
2023-05-14T22:41:04.015Z,2.85
2023-05-14T22:43:32.635Z,2.22
2023-05-14T22:46:02.347Z,2.13
2023-05-14T22:48:30.617Z,2.50
2023-05-14T22:50:58.792Z,2.00
2023-05-14T22:53:27.227Z,1.77
2023-05-14T22:55:55.674Z,1.98
2023-05-14T22:58:23.985Z,1.90
2023-05-14T23:00:52.303Z,1.70
2023-05-14T23:03:22.062Z,2.55
2023-05-14T23:05:50.354Z,2.20
2023-05-14T23:08:18.471Z,1.98
2023-05-14T23:10:46.658Z,2.42
2023-05-14T23:13:14.813Z,2.20
2023-05-14T23:15:44.087Z,2.45
2023-05-14T23:18:12.440Z,2.10
2023-05-14T23:20:42.128Z,2.10
2023-05-14T23:23:10.219Z,2.10
2023-05-14T23:25:38.304Z,2.08
2023-05-14T23:28:06.464Z,2.05
2023-05-14T23:30:34.716Z,2.03
2023-05-14T23:33:02.945Z,2.10
2023-05-14T23:35:33.795Z,2.25
2023-05-14T23:38:03.437Z,2.13
2023-05-14T23:40:31.716Z,2.10
2023-05-14T23:43:00.526Z,2.35
2023-05-14T23:45:29.069Z,2.35
2023-05-14T23:47:59.093Z,2.28
2023-05-14T23:50:27.363Z,2.40
2023-05-14T23:52:56.395Z,2.25
2023-05-14T23:55:26.289Z,2.20
2023-05-14T23:57:54.972Z,2.38
